Time;durP1;ratioP1;P1;durP2;ratioP2;P2;SDS_P1;SDS_P2;PMS_P1;PMS_P2;Temp;Humidity;BMP_temperature;BMP_pressure;BME280_temperature;BME280_humidity;BME280_pressure;Samples;Min_cycle;Max_cycle;Signal;HPM_P1;HPM_P2
2021/04/20 11:31:45;;;;;;;4.65;3.90;;;20.80;47.70;;;;;;5110438;27;20135;-79
2021/04/20 11:34:26;;;;;;;5.60;4.65;;;19.00;50.70;;;;;;5101819;28;20680;-82
2021/04/20 11:37:14;;;;;;;5.40;3.55;;;17.60;52.20;;;;;;5083645;28;20061;-78
2021/04/20 11:40:02;;;;;;;15.48;10.25;;;16.70;56.40;;;;;;5099770;28;20396;-78
2021/04/20 11:42:42;;;;;;;6.95;5.03;;;16.40;55.00;;;;;;5102314;28;20038;-80
2021/04/20 11:45:18;;;;;;;8.88;5.63;;;16.00;56.60;;;;;;5104951;28;20055;-79
2021/04/20 11:48:17;;;;;;;8.88;4.90;;;15.90;59.00;;;;;;5103518;28;20059;-79
2021/04/20 11:50:52;;;;;;;6.22;4.70;;;16.00;58.30;;;;;;5093725;28;20785;-78
2021/04/20 11:53:20;;;;;;;7.05;4.70;;;15.70;58.00;;;;;;5103786;28;20036;-79
2021/04/20 11:55:52;;;;;;;6.30;4.28;;;15.60;57.60;;;;;;5096937;28;20027;-79
2021/04/20 11:58:28;;;;;;;6.72;4.63;;;15.70;60.40;;;;;;5104548;28;20024;-81
2021/04/20 12:01:01;;;;;;;9.35;6.10;;;15.80;58.10;;;;;;5103733;28;20024;-80
2021/04/20 12:03:33;;;;;;;8.68;5.78;;;15.80;60.30;;;;;;5104228;28;20538;-79
2021/04/20 12:06:07;;;;;;;6.60;4.60;;;16.00;59.80;;;;;;5104967;28;20530;-78
2021/04/20 12:08:39;;;;;;;13.95;8.70;;;16.10;58.40;;;;;;5103165;28;20032;-79
2021/04/20 12:11:18;;;;;;;16.15;9.05;;;16.50;56.70;;;;;;5103196;28;20031;-79
2021/04/20 12:13:49;;;;;;;14.07;7.63;;;17.00;57.40;;;;;;5104718;28;20388;-81
2021/04/20 12:16:16;;;;;;;21.52;10.48;;;17.70;54.40;;;;;;5103274;28;20122;-81
2021/04/20 12:18:47;;;;;;;16.85;9.00;;;17.70;53.10;;;;;;5103939;28;20051;-82
2021/04/20 12:21:28;;;;;;;18.35;10.23;;;17.90;53.80;;;;;;5102870;28;20524;-81
2021/04/20 12:23:57;;;;;;;25.75;12.27;;;18.20;51.80;;;;;;5103583;28;20039;-80
2021/04/20 12:26:24;;;;;;;19.73;9.23;;;18.80;50.90;;;;;;5104337;28;20046;-81
2021/04/20 12:28:53;;;;;;;15.23;10.05;;;20.10;48.90;;;;;;5103619;28;20063;-80
2021/04/20 12:31:31;;;;;;;24.80;12.30;;;20.60;47.80;;;;;;5104368;28;20058;-79
2021/04/20 12:33:57;;;;;;;14.35;9.85;;;21.60;45.30;;;;;;5102590;28;20016;-79
2021/04/20 12:36:33;;;;;;;17.73;11.15;;;21.40;46.30;;;;;;5105454;28;20098;-80
2021/04/20 12:39:02;;;;;;;15.48;9.00;;;21.80;47.20;;;;;;5104109;28;20080;-80
2021/04/20 12:41:31;;;;;;;9.43;6.25;;;21.90;45.30;;;;;;5146062;22;20389;-78
2021/04/20 12:44:01;;;;;;;12.27;6.72;;;21.90;47.20;;;;;;5040481;28;20045;-76
2021/04/20 12:46:29;;;;;;;10.82;7.53;;;21.90;46.40;;;;;;5039193;28;20026;-76
2021/04/20 12:48:59;;;;;;;20.70;11.15;;;20.60;47.30;;;;;;5033335;28;20028;-75
2021/04/20 12:51:30;;;;;;;13.85;8.38;;;19.90;47.80;;;;;;5056643;28;20044;-76
2021/04/20 12:53:57;;;;;;;12.48;8.23;;;21.00;48.30;;;;;;5043779;28;20030;-76
2021/04/20 12:56:51;;;;;;;13.43;7.85;;;21.30;46.40;;;;;;5054588;28;20026;-77
2021/04/20 12:59:22;;;;;;;13.77;9.50;;;21.30;47.00;;;;;;5033484;28;20152;-74
2021/04/20 13:01:51;;;;;;;17.02;11.15;;;21.20;46.80;;;;;;5040197;28;20419;-77
2021/04/20 13:04:23;;;;;;;16.65;10.15;;;20.80;48.10;;;;;;5060746;28;20029;-75
2021/04/20 13:06:49;;;;;;;13.93;9.00;;;20.80;48.20;;;;;;5041303;28;20156;-77
2021/04/20 13:09:24;;;;;;;19.13;11.10;;;21.50;48.40;;;;;;5040232;28;20104;-77
2021/04/20 13:11:53;;;;;;;17.90;10.30;;;22.90;45.10;;;;;;5042933;28;20017;-77
2021/04/20 13:14:21;;;;;;;20.73;12.60;;;22.80;43.80;;;;;;5038071;28;20487;-77
2021/04/20 13:16:51;;;;;;;34.45;13.80;;;21.50;46.60;;;;;;5037272;28;20071;-79
2021/04/20 13:19:26;;;;;;;28.92;15.45;;;21.30;44.90;;;;;;5059444;28;20025;-79
2021/04/20 13:21:54;;;;;;;23.25;14.32;;;20.20;45.90;;;;;;5038515;28;20033;-78
2021/04/20 13:24:21;;;;;;;23.27;14.30;;;19.80;49.70;;;;;;5043803;28;20051;-77
2021/04/20 13:26:49;;;;;;;29.73;17.02;;;20.50;47.90;;;;;;5038282;28;20033;-78
2021/04/20 13:29:16;;;;;;;24.77;13.48;;;22.70;44.10;;;;;;5042002;28;20124;-78
2021/04/20 13:31:48;;;;;;;28.85;14.80;;;25.10;40.10;;;;;;5036113;28;20205;-77
2021/04/20 13:34:26;;;;;;;30.35;16.65;;;23.90;40.20;;;;;;5033449;28;20391;-78
2021/04/20 13:36:53;;;;;;;24.98;13.88;;;23.30;39.40;;;;;;5041430;28;20483;-77
2021/04/20 13:39:29;;;;;;;33.25;16.98;;;22.30;43.00;;;;;;5039136;28;20083;-77
2021/04/20 13:41:58;;;;;;;35.30;16.42;;;21.40;44.60;;;;;;5037116;28;20056;-78
2021/04/20 13:44:33;;;;;;;29.33;14.38;;;21.40;45.70;;;;;;5040487;28;20029;-75
2021/04/20 13:47:05;;;;;;;26.83;11.00;;;21.60;44.40;;;;;;5041580;28;20501;-78
2021/04/20 13:49:31;;;;;;;18.65;9.77;;;20.90;47.00;;;;;;5037136;28;20472;-78
2021/04/20 13:52:00;;;;;;;20.55;8.68;;;21.30;47.90;;;;;;5035837;28;20031;-78
2021/04/20 13:54:37;;;;;;;21.35;8.02;;;23.10;45.30;;;;;;5046442;28;20013;-76
2021/04/20 13:57:06;;;;;;;15.43;7.75;;;22.10;42.90;;;;;;5034094;28;20487;-77
2021/04/20 13:59:39;;;;;;;23.02;8.98;;;21.20;46.30;;;;;;5037576;28;20029;-77
2021/04/20 14:02:12;;;;;;;20.80;8.95;;;20.90;45.70;;;;;;5057884;28;20476;-78
2021/04/20 14:05:01;;;;;;;15.88;7.45;;;22.20;42.70;;;;;;5036385;28;20375;-79
2021/04/20 14:07:30;;;;;;;14.18;5.82;;;22.40;44.30;;;;;;5036529;28;20451;-80
2021/04/20 14:09:58;;;;;;;25.08;8.23;;;23.50;44.30;;;;;;5045578;28;20028;-81
2021/04/20 14:12:35;;;;;;;29.83;8.32;;;23.60;41.70;;;;;;5030180;28;20029;-80
2021/04/20 14:15:09;;;;;;;21.30;9.43;;;24.30;40.20;;;;;;5033417;28;20112;-79
2021/04/20 14:17:46;;;;;;;16.73;7.00;;;25.30;38.40;;;;;;5035475;28;20437;-77
2021/04/20 14:20:23;;;;;;;18.48;8.73;;;24.20;42.10;;;;;;5037001;28;20053;-79
2021/04/20 14:22:53;;;;;;;26.48;9.80;;;23.40;42.10;;;;;;5038705;28;20144;-81
2021/04/20 14:25:21;;;;;;;19.70;7.95;;;23.00;40.90;;;;;;5036979;28;20025;-78
2021/04/20 14:27:51;;;;;;;13.70;6.95;;;22.90;42.70;;;;;;5036624;28;20039;-78
2021/04/20 14:30:18;;;;;;;19.52;7.32;;;22.30;46.00;;;;;;5038107;28;20033;-77
2021/04/20 14:32:48;;;;;;;19.05;7.03;;;22.70;45.40;;;;;;5041397;28;20104;-78
2021/04/20 14:35:17;;;;;;;30.67;10.90;;;23.10;44.60;;;;;;5053062;28;20108;-78
2021/04/20 14:37:46;;;;;;;29.30;10.18;;;22.70;41.50;;;;;;5055224;28;20044;-78
2021/04/20 14:40:17;;;;;;;26.95;9.80;;;23.30;41.50;;;;;;5042047;28;20094;-77
2021/04/20 14:43:05;;;;;;;37.00;13.18;;;24.40;39.30;;;;;;5040777;28;20033;-77
2021/04/20 14:45:38;;;;;;;27.33;10.48;;;24.10;40.00;;;;;;5034696;28;20025;-78
2021/04/20 14:48:10;;;;;;;32.13;10.07;;;24.80;39.20;;;;;;5047441;28;20025;-75
2021/04/20 14:50:40;;;;;;;32.65;10.23;;;26.20;38.20;;;;;;5037616;28;20051;-77
2021/04/20 14:53:09;;;;;;;33.08;11.18;;;27.00;34.10;;;;;;5039722;28;20059;-78
2021/04/20 14:55:42;;;;;;;29.83;9.82;;;26.20;35.30;;;;;;5037802;28;20514;-77
2021/04/20 14:58:09;;;;;;;29.77;10.75;;;24.80;37.70;;;;;;5031350;28;20074;-78
2021/04/20 15:00:36;;;;;;;31.13;10.75;;;23.90;40.30;;;;;;5050158;28;20033;-78
2021/04/20 15:03:04;;;;;;;27.67;11.00;;;24.20;40.20;;;;;;5036967;28;20120;-80
2021/04/20 15:05:30;;;;;;;27.08;10.18;;;23.80;40.30;;;;;;5036401;28;20033;-76
2021/04/20 15:08:02;;;;;;;28.52;10.63;;;23.50;41.60;;;;;;5035869;28;20033;-77
2021/04/20 15:10:40;;;;;;;29.85;10.95;;;23.30;40.10;;;;;;5035994;28;20592;-77
2021/04/20 15:13:12;;;;;;;30.13;11.82;;;24.00;41.70;;;;;;5034338;28;20016;-76
2021/04/20 15:15:48;;;;;;;25.20;10.30;;;23.50;39.50;;;;;;5032697;28;20032;-76
2021/04/20 15:18:22;;;;;;;26.40;11.32;;;23.60;40.90;;;;;;5033170;28;20045;-81
2021/04/20 15:20:50;;;;;;;23.08;10.48;;;25.10;39.90;;;;;;5034107;28;20035;-78
2021/04/20 15:23:41;;;;;;;24.98;9.73;;;27.30;37.20;;;;;;5039913;28;20014;-78
2021/04/20 15:26:10;;;;;;;29.33;11.98;;;28.30;36.00;;;;;;5040882;28;20491;-79
2021/04/20 15:28:38;;;;;;;24.83;10.73;;;26.30;35.70;;;;;;5042708;28;20029;-77
2021/04/20 15:31:08;;;;;;;24.52;10.18;;;25.00;38.20;;;;;;5039903;28;20040;-80
2021/04/20 15:33:39;;;;;;;23.23;9.35;;;25.20;38.90;;;;;;5039394;28;20025;-79
2021/04/20 15:36:09;;;;;;;22.08;10.10;;;26.40;37.30;;;;;;5040573;28;20017;-79
2021/04/20 15:38:53;;;;;;;29.10;10.45;;;26.30;36.50;;;;;;5036471;28;20018;-79
2021/04/20 15:41:26;;;;;;;26.65;11.45;;;25.90;37.50;;;;;;5049021;28;20041;-79
2021/04/20 15:43:53;;;;;;;25.70;9.93;;;25.00;38.40;;;;;;5041756;28;20017;-78
2021/04/20 15:46:37;;;;;;;26.73;10.77;;;25.40;36.80;;;;;;5042811;28;20025;-78
2021/04/20 15:49:06;;;;;;;35.38;11.38;;;25.30;36.40;;;;;;5022783;28;20488;-77
2021/04/20 15:51:35;;;;;;;25.00;10.27;;;25.80;35.10;;;;;;5032217;28;20091;-77
2021/04/20 15:54:20;;;;;;;30.25;10.52;;;26.10;36.10;;;;;;5037462;28;20053;-78
2021/04/20 15:56:52;;;;;;;31.23;11.23;;;25.80;35.30;;;;;;5040506;28;20080;-78
2021/04/20 15:59:32;;;;;;;32.97;11.70;;;25.20;36.70;;;;;;5034781;28;20017;-76
2021/04/20 16:02:10;;;;;;;33.67;12.15;;;24.60;36.70;;;;;;5037141;28;20029;-78
2021/04/20 16:04:39;;;;;;;33.22;11.70;;;23.90;37.10;;;;;;5043537;28;20434;-77
2021/04/20 16:07:06;;;;;;;30.85;12.75;;;24.50;35.50;;;;;;5030464;28;20116;-77
2021/04/20 16:09:32;;;;;;;;;;;24.60;34.80;;;;;;5030507;28;20072;-77
2021/04/20 16:12:08;;;;;;;35.05;12.63;;;24.50;34.10;;;;;;5028717;28;19932;-77
2021/04/20 16:14:41;;;;;;;33.95;12.13;;;23.90;35.30;;;;;;5038520;28;20282;-79
2021/04/20 16:17:10;;;;;;;17.65;8.48;;;22.50;38.10;;;;;;5033603;28;20115;-80
2021/04/20 16:19:43;;;;;;;12.25;4.82;;;22.00;41.50;;;;;;5040415;28;20025;-76
2021/04/20 16:22:13;;;;;;;6.38;2.85;;;21.90;41.60;;;;;;5032357;28;20048;-76
2021/04/20 16:24:41;;;;;;;7.07;2.85;;;21.70;42.30;;;;;;5033358;28;20116;-76
2021/04/20 16:27:12;;;;;;;2.75;1.70;;;21.30;44.40;;;;;;5032938;28;20421;-78
2021/04/20 16:29:43;;;;;;;7.05;1.95;;;20.90;44.60;;;;;;5031194;28;20435;-77
2021/04/20 16:32:14;;;;;;;4.72;1.85;;;20.50;45.30;;;;;;5032100;28;20039;-78
2021/04/20 16:34:42;;;;;;;2.30;1.35;;;20.30;46.10;;;;;;5034950;28;20060;-79
2021/04/20 16:37:46;;;;;;;2.35;1.00;;;19.80;46.70;;;;;;5031770;28;20484;-76
2021/04/20 16:40:33;;;;;;;1.20;1.10;;;19.10;47.40;;;;;;5013464;28;20037;-76
2021/04/20 16:43:23;;;;;;;1.50;1.10;;;18.40;50.60;;;;;;5031902;28;20030;-78
2021/04/20 16:46:12;;;;;;;1.92;1.30;;;18.00;50.40;;;;;;5033057;28;20029;-76
2021/04/20 16:48:59;;;;;;;3.20;1.85;;;17.90;51.50;;;;;;5030941;28;20033;-77
2021/04/20 16:51:38;;;;;;;4.00;1.80;;;17.60;52.30;;;;;;5037133;28;20042;-76
2021/04/20 16:54:43;;;;;;;1.10;1.00;;;17.30;53.80;;;;;;5030199;28;20113;-77
2021/04/20 16:57:37;;;;;;;1.48;1.17;;;16.80;54.00;;;;;;5032353;28;20045;-76
2021/04/20 17:00:33;;;;;;;2.90;1.10;;;16.40;54.80;;;;;;5057697;28;20067;-76
2021/04/20 17:03:07;;;;;;;1.67;1.42;;;16.10;55.80;;;;;;5037317;28;20029;-78
2021/04/20 17:05:50;;;;;;;2.28;1.40;;;15.90;56.50;;;;;;5050737;28;20032;-79
2021/04/20 17:08:24;;;;;;;1.95;1.40;;;15.70;56.90;;;;;;5040175;28;20021;-76
2021/04/20 17:11:30;;;;;;;1.10;1.00;;;15.50;58.00;;;;;;5031540;28;20090;-79
2021/04/20 17:13:58;;;;;;;1.88;1.48;;;15.40;57.60;;;;;;5015575;28;20030;-78
2021/04/20 17:17:03;;;;;;;2.30;1.40;;;15.30;60.10;;;;;;5030614;28;20058;-78
2021/04/20 17:19:44;;;;;;;2.78;1.52;;;15.10;58.50;;;;;;5038654;28;20086;-76
2021/04/20 17:22:54;;;;;;;3.25;2.15;;;15.00;59.20;;;;;;5028430;28;20072;-76
2021/04/20 17:25:42;;;;;;;1.80;1.38;;;14.80;59.80;;;;;;5034645;28;20037;-79
2021/04/20 17:28:28;;;;;;;1.40;1.30;;;14.70;60.10;;;;;;5027265;28;20557;-78
2021/04/20 17:31:03;;;;;;;1.50;1.30;;;14.60;60.70;;;;;;5031462;28;20044;-77
2021/04/20 17:33:50;;;;;;;2.25;1.88;;;14.50;61.40;;;;;;5029980;28;20093;-76
2021/04/20 17:36:47;;;;;;;3.38;1.70;;;14.40;61.20;;;;;;5031827;28;20036;-77
2021/04/20 17:39:55;;;;;;;3.72;1.40;;;14.40;61.20;;;;;;5035673;28;20029;-77
2021/04/20 17:42:48;;;;;;;2.15;1.67;;;14.30;61.20;;;;;;5051545;28;20392;-76
2021/04/20 17:45:24;;;;;;;2.13;1.30;;;14.30;61.10;;;;;;5047870;28;20022;-77
2021/04/20 17:48:16;;;;;;;2.38;1.50;;;14.20;61.30;;;;;;5030873;28;20045;-78
2021/04/20 17:50:57;;;;;;;1.77;1.42;;;14.20;61.20;;;;;;5035994;28;20304;-76
2021/04/20 17:53:49;;;;;;;1.92;1.52;;;14.00;64.90;;;;;;5034659;28;20030;-77
2021/04/20 17:56:17;;;;;;;5.10;2.90;;;13.80;66.30;;;;;;5029973;28;20033;-77
2021/04/20 17:59:00;;;;;;;6.07;2.47;;;13.70;65.90;;;;;;5031902;28;20472;-76
2021/04/20 18:01:52;;;;;;;3.67;2.17;;;13.60;67.00;;;;;;5030208;28;20033;-78
2021/04/20 18:04:39;;;;;;;6.95;4.40;;;13.50;75.30;;;;;;5026264;28;20544;-80
2021/04/20 18:07:29;;;;;;;7.85;3.58;;;13.50;80.20;;;;;;5038711;28;20032;-77
2021/04/20 18:10:16;;;;;;;1.92;1.70;;;13.40;82.90;;;;;;5039922;28;20037;-78
2021/04/20 18:13:02;;;;;;;1.75;1.35;;;13.40;73.70;;;;;;5020765;28;20029;-78
2021/04/20 18:16:06;;;;;;;3.45;1.60;;;13.40;74.30;;;;;;5028643;28;20395;-76
2021/04/20 18:19:06;;;;;;;3.97;1.80;;;13.30;76.40;;;;;;5027510;28;20063;-77
2021/04/20 18:21:56;;;;;;;2.00;1.35;;;13.20;78.00;;;;;;5030507;28;20030;-77
2021/04/20 18:24:35;;;;;;;4.57;1.60;;;13.10;78.70;;;;;;5037380;28;20074;-78
2021/04/20 18:27:00;;;;;;;2.13;1.63;;;13.00;79.80;;;;;;5030906;28;20017;-79
2021/04/20 18:29:28;;;;;;;2.33;1.83;;;12.90;80.60;;;;;;5037091;28;20510;-78
2021/04/20 18:32:13;;;;;;;2.97;1.80;;;12.80;81.30;;;;;;5035757;28;20064;-80
2021/04/20 18:35:00;;;;;;;2.25;1.70;;;12.80;81.00;;;;;;5033562;28;20037;-78
2021/04/20 18:37:38;;;;;;;3.75;2.00;;;12.70;82.10;;;;;;5027978;28;20385;-77
2021/04/20 18:40:09;;;;;;;;;;;12.70;82.70;;;;;;5039071;28;20048;-81
2021/04/20 18:43:13;;;;;;;6.72;2.80;;;12.60;84.00;;;;;;5041543;28;20278;-84
2021/04/20 18:45:51;;;;;;;3.33;2.38;;;12.50;85.90;;;;;;5035275;28;20083;-81
2021/04/20 18:48:40;;;;;;;4.00;2.83;;;12.30;88.50;;;;;;5036233;28;20017;-80
2021/04/20 18:51:25;;;;;;;4.65;3.45;;;12.20;90.20;;;;;;5044076;28;20044;-81
2021/04/20 18:54:13;;;;;;;6.25;4.00;;;12.10;91.10;;;;;;5038374;28;20045;-79
2021/04/20 18:56:52;;;;;;;8.37;3.77;;;11.90;91.20;;;;;;5037253;28;20030;-81
2021/04/20 18:59:27;;;;;;;8.75;5.70;;;11.70;92.30;;;;;;5035290;28;20052;-77
2021/04/20 19:01:58;;;;;;;8.60;4.63;;;11.60;94.10;;;;;;5033352;28;20033;-77
2021/04/20 19:04:24;;;;;;;7.97;4.55;;;11.50;95.80;;;;;;5046344;28;20843;-79
2021/04/20 19:07:14;;;;;;;8.20;3.45;;;11.40;96.50;;;;;;5035265;28;20029;-79
2021/04/20 19:10:03;;;;;;;33.83;18.83;;;11.40;96.90;;;;;;5033715;28;20124;-78
2021/04/20 19:13:04;;;;;;;16.20;7.55;;;11.30;98.10;;;;;;5036305;28;20829;-79
2021/04/20 19:16:14;;;;;;;6.35;4.10;;;11.20;98.30;;;;;;5039257;28;20090;-79
2021/04/20 19:19:03;;;;;;;15.90;6.05;;;11.00;99.10;;;;;;5031527;28;20033;-77
2021/04/20 19:22:04;;;;;;;16.70;10.40;;;10.90;99.80;;;;;;5031697;28;20091;-77
2021/04/20 19:24:36;;;;;;;13.63;7.90;;;10.80;99.90;;;;;;5033698;28;20100;-79
2021/04/20 19:27:20;;;;;;;12.80;4.97;;;10.70;99.90;;;;;;5034643;28;20021;-81
2021/04/20 19:30:11;;;;;;;11.77;4.70;;;10.70;99.90;;;;;;5033648;28;20037;-77
2021/04/20 19:32:52;;;;;;;8.90;4.47;;;10.60;99.90;;;;;;5034099;28;20048;-79
2021/04/20 19:35:48;;;;;;;7.07;4.60;;;10.60;99.90;;;;;;5038905;28;20132;-79
2021/04/20 19:38:36;;;;;;;6.25;3.70;;;10.60;99.90;;;;;;5036970;28;20158;-78
2021/04/20 19:41:26;;;;;;;5.45;3.47;;;10.50;99.90;;;;;;5033582;28;20345;-77
2021/04/20 19:43:59;;;;;;;7.30;4.25;;;10.40;99.90;;;;;;5036340;28;20021;-78
2021/04/20 19:46:26;;;;;;;9.68;4.80;;;10.30;99.90;;;;;;5036695;28;20124;-80
2021/04/20 19:49:04;;;;;;;10.20;5.43;;;10.30;99.90;;;;;;5034411;28;20387;-78
2021/04/20 19:51:52;;;;;;;6.82;4.72;;;10.30;99.90;;;;;;5031641;28;20390;-82
2021/04/20 19:54:20;;;;;;;9.88;5.90;;;10.30;99.90;;;;;;5040351;28;20671;-81
2021/04/20 19:56:51;;;;;;;8.60;5.28;;;10.30;99.90;;;;;;5034492;28;20029;-78
2021/04/20 19:59:30;;;;;;;9.77;4.97;;;10.20;99.90;;;;;;5039794;28;20248;-79
2021/04/20 20:01:58;;;;;;;11.45;5.18;;;10.30;99.90;;;;;;5040013;28;20560;-80
2021/04/20 20:04:36;;;;;;;11.95;5.63;;;10.20;99.90;;;;;;5038997;28;20447;-79
2021/04/20 20:07:09;;;;;;;8.82;5.30;;;10.20;99.90;;;;;;5056509;28;20092;-80
2021/04/20 20:09:37;;;;;;;6.57;4.13;;;10.10;99.90;;;;;;5041864;28;20026;-79
2021/04/20 20:12:08;;;;;;;7.95;4.55;;;10.10;99.90;;;;;;5037819;28;20028;-78
2021/04/20 20:14:35;;;;;;;7.82;4.80;;;10.10;99.90;;;;;;5038455;28;20021;-79
2021/04/20 20:17:12;;;;;;;11.98;5.63;;;10.20;99.90;;;;;;5043169;28;20128;-84
2021/04/20 20:19:54;;;;;;;8.10;4.60;;;10.10;99.90;;;;;;5042795;28;20057;-81
2021/04/20 20:22:22;;;;;;;9.48;4.55;;;10.10;99.90;;;;;;5038415;28;20124;-79
2021/04/20 20:24:50;;;;;;;6.88;4.70;;;10.10;99.90;;;;;;5042742;28;20622;-82
2021/04/20 20:27:35;;;;;;;8.98;4.43;;;10.00;99.90;;;;;;5035881;28;20394;-82
2021/04/20 20:30:08;;;;;;;8.18;4.43;;;9.90;99.90;;;;;;5038901;28;20606;-78
2021/04/20 20:32:46;;;;;;;9.25;4.68;;;9.90;99.90;;;;;;5039618;28;20037;-81
2021/04/20 20:35:24;;;;;;;4.53;3.42;;;9.80;99.90;;;;;;5041944;28;20029;-81
2021/04/20 20:37:59;;;;;;;6.00;3.60;;;9.80;99.90;;;;;;5041168;28;20033;-81
2021/04/20 20:40:30;;;;;;;4.68;3.35;;;9.70;99.90;;;;;;5043589;28;20041;-79
2021/04/20 20:43:03;;;;;;;7.70;4.00;;;9.70;99.90;;;;;;5035520;28;20168;-80
2021/04/20 20:45:34;;;;;;;10.88;3.40;;;9.70;99.90;;;;;;5028607;28;20021;-81
2021/04/20 20:48:06;;;;;;;5.32;3.53;;;9.70;99.90;;;;;;5039387;28;20025;-79
2021/04/20 20:50:33;;;;;;;9.30;4.00;;;9.70;99.90;;;;;;5038404;28;20468;-78
2021/04/20 20:52:59;;;;;;;5.00;3.20;;;9.70;99.90;;;;;;5036851;28;20041;-81
2021/04/20 20:55:35;;;;;;;5.90;3.40;;;9.70;99.90;;;;;;5042700;28;20041;-80
2021/04/20 20:58:07;;;;;;;7.35;3.60;;;9.70;99.90;;;;;;5034701;28;20534;-81
2021/04/20 21:00:35;;;;;;;5.38;2.92;;;9.70;99.90;;;;;;5029966;28;20471;-78
2021/04/20 21:03:04;;;;;;;4.28;3.33;;;9.80;99.90;;;;;;5026447;28;20370;-81
2021/04/20 21:05:32;;;;;;;3.80;2.28;;;9.70;99.90;;;;;;5037106;28;20109;-78
2021/04/20 21:08:02;;;;;;;3.97;2.45;;;9.70;99.90;;;;;;5035820;28;20587;-79
2021/04/20 21:10:37;;;;;;;5.75;3.58;;;9.70;99.90;;;;;;5039073;28;20048;-79
2021/04/20 21:13:12;;;;;;;6.40;3.67;;;9.70;99.90;;;;;;5033664;28;20028;-79
2021/04/20 21:15:46;;;;;;;6.18;3.50;;;9.60;99.90;;;;;;5038648;28;20062;-79
2021/04/20 21:18:27;;;;;;;8.00;4.20;;;9.50;99.90;;;;;;5043734;28;20029;-79
2021/04/20 21:21:08;;;;;;;8.50;4.97;;;9.40;99.90;;;;;;5037990;28;20531;-78
2021/04/20 21:23:48;;;;;;;9.23;5.15;;;9.30;99.90;;;;;;5043374;28;20021;-78
2021/04/20 21:26:18;;;;;;;8.13;4.30;;;9.30;99.90;;;;;;5039995;28;20072;-81
2021/04/20 21:28:52;;;;;;;6.28;3.83;;;9.20;99.90;;;;;;5048415;28;20037;-81
2021/04/20 21:31:19;;;;;;;5.97;3.47;;;9.30;99.90;;;;;;5038967;28;20858;-80
2021/04/20 21:33:52;;;;;;;7.90;3.65;;;9.60;99.90;;;;;;5037285;28;20018;-77
2021/04/20 21:36:26;;;;;;;8.05;4.43;;;9.70;99.90;;;;;;5037113;28;20025;-78
2021/04/20 21:39:13;;;;;;;6.05;3.08;;;9.80;99.90;;;;;;5041058;28;20032;-80
2021/04/20 21:41:42;;;;;;;3.43;2.73;;;9.90;99.90;;;;;;5033362;28;20067;-80
2021/04/20 21:44:11;;;;;;;4.38;3.05;;;9.80;99.90;;;;;;5043490;28;20400;-79
2021/04/20 21:46:39;;;;;;;4.03;2.83;;;9.80;99.90;;;;;;5036273;28;20113;-80
2021/04/20 21:49:11;;;;;;;4.25;2.72;;;9.70;99.90;;;;;;5039924;28;20096;-80
2021/04/20 21:51:45;;;;;;;4.65;2.60;;;9.60;99.90;;;;;;5033174;28;20065;-80
2021/04/20 21:54:16;;;;;;;3.92;2.65;;;9.60;99.90;;;;;;5035632;28;20025;-79
2021/04/20 21:56:45;;;;;;;4.35;2.50;;;9.70;99.90;;;;;;5033417;28;20035;-83
2021/04/20 21:59:21;;;;;;;4.18;2.90;;;9.70;99.90;;;;;;5030776;28;20025;-82
2021/04/20 22:01:49;;;;;;;5.38;3.28;;;9.60;99.90;;;;;;5053362;28;20043;-78
2021/04/20 22:04:16;;;;;;;6.88;4.18;;;9.50;99.90;;;;;;5034802;28;20057;-78
2021/04/20 22:06:43;;;;;;;8.20;4.97;;;9.30;99.90;;;;;;5032756;28;20013;-79
2021/04/20 22:09:16;;;;;;;6.00;4.18;;;9.30;99.90;;;;;;5042728;28;20140;-78
2021/04/20 22:11:55;;;;;;;7.88;4.78;;;9.20;99.90;;;;;;5023851;28;20483;-78
2021/04/20 22:14:25;;;;;;;6.82;4.07;;;9.00;99.90;;;;;;5035306;28;20531;-78
2021/04/20 22:16:54;;;;;;;7.55;4.03;;;8.90;99.90;;;;;;5035423;28;20099;-80
2021/04/20 22:19:21;;;;;;;9.15;4.15;;;8.90;99.90;;;;;;5034967;28;20039;-77
2021/04/20 22:21:48;;;;;;;9.50;4.10;;;8.90;99.90;;;;;;5037968;28;20025;-77
2021/04/20 22:24:16;;;;;;;6.50;3.70;;;8.90;99.90;;;;;;5054948;28;20033;-78
2021/04/20 22:26:42;;;;;;;7.68;3.00;;;8.90;99.90;;;;;;5035968;28;20036;-79
2021/04/20 22:29:20;;;;;;;8.48;2.92;;;8.90;99.90;;;;;;5036274;28;20021;-77
2021/04/20 22:31:49;;;;;;;7.03;2.97;;;8.90;99.90;;;;;;5019969;28;20033;-78
2021/04/20 22:34:28;;;;;;;5.30;3.53;;;8.90;99.90;;;;;;5034732;28;20033;-78
2021/04/20 22:36:55;;;;;;;7.63;3.60;;;8.90;99.90;;;;;;5055148;28;20086;-78
2021/04/20 22:39:21;;;;;;;5.50;3.28;;;8.90;99.90;;;;;;5045477;28;20450;-77
2021/04/20 22:41:55;;;;;;;6.75;3.40;;;8.90;99.90;;;;;;5045581;28;20045;-76
2021/04/20 22:44:43;;;;;;;7.15;3.70;;;8.80;99.90;;;;;;5032644;28;20626;-78
2021/04/20 22:47:27;;;;;;;5.57;3.88;;;8.80;99.90;;;;;;5041220;28;20459;-79
2021/04/20 22:49:58;;;;;;;4.70;3.05;;;8.70;99.90;;;;;;5023705;28;20044;-79
2021/04/20 22:52:47;;;;;;;4.85;3.33;;;8.70;99.90;;;;;;5039479;28;20061;-79
2021/04/20 22:55:18;;;;;;;3.45;2.70;;;8.60;99.90;;;;;;5047017;28;20021;-78
2021/04/20 22:58:07;;;;;;;9.60;4.13;;;8.60;99.90;;;;;;5037898;28;20056;-78
2021/04/20 23:00:33;;;;;;;4.80;3.40;;;8.60;99.90;;;;;;5042121;28;20305;-78
2021/04/20 23:02:58;;;;;;;6.03;3.88;;;8.70;99.90;;;;;;5034896;28;20033;-81
2021/04/20 23:05:26;;;;;;;7.70;3.38;;;8.70;99.90;;;;;;5055175;28;20029;-80
2021/04/20 23:07:54;;;;;;;7.25;4.45;;;8.70;99.90;;;;;;5052940;28;20048;-81
2021/04/20 23:10:23;;;;;;;5.63;3.60;;;8.80;99.90;;;;;;5036961;28;20036;-78
2021/04/20 23:12:50;;;;;;;5.38;3.47;;;8.80;99.90;;;;;;5031003;28;20460;-77
2021/04/20 23:15:19;;;;;;;5.43;3.97;;;8.80;99.90;;;;;;5041707;28;20025;-77
2021/04/20 23:17:49;;;;;;;5.78;3.72;;;8.80;99.90;;;;;;5036157;28;20111;-78
2021/04/20 23:20:17;;;;;;;6.43;3.70;;;8.80;99.90;;;;;;5036957;28;20472;-78
2021/04/20 23:22:45;;;;;;;5.25;3.65;;;8.70;99.90;;;;;;5040195;28;20506;-78
2021/04/20 23:25:40;;;;;;;7.97;4.00;;;8.70;99.90;;;;;;5042344;28;20028;-78
2021/04/20 23:28:43;;;;;;;8.20;3.88;;;8.70;99.90;;;;;;5049021;28;20034;-78
2021/04/20 23:31:19;;;;;;;5.50;3.67;;;8.60;99.90;;;;;;5034555;28;20033;-77
2021/04/20 23:33:46;;;;;;;7.38;3.85;;;8.60;99.90;;;;;;5038971;28;20091;-77
2021/04/20 23:36:13;;;;;;;5.07;3.60;;;8.50;99.90;;;;;;5036814;28;20422;-77
2021/04/20 23:38:39;;;;;;;;;;;8.50;99.90;;;;;;5046088;28;20021;-77
2021/04/20 23:41:06;;;;;;;6.47;3.75;;;8.60;99.90;;;;;;5038760;28;19917;-77
2021/04/20 23:43:33;;;;;;;6.95;4.22;;;8.60;99.90;;;;;;5041126;28;20419;-78
2021/04/20 23:46:02;;;;;;;4.82;3.58;;;8.60;99.90;;;;;;5043726;28;20029;-79
2021/04/20 23:48:29;;;;;;;4.60;3.38;;;8.60;99.90;;;;;;5036986;28;20024;-76
2021/04/20 23:50:55;;;;;;;5.55;3.40;;;8.60;99.90;;;;;;5056756;28;20037;-76
2021/04/20 23:53:22;;;;;;;9.82;4.43;;;8.60;99.90;;;;;;5046195;28;20025;-77
2021/04/20 23:55:53;;;;;;;5.37;3.57;;;8.70;99.90;;;;;;5041630;28;20636;-77
2021/04/20 23:58:23;;;;;;;4.80;3.20;;;8.70;99.90;;;;;;5037513;28;20017;-77
